sensor_id;sensor_type;location;lat;lon;timestamp;P1;durP1;ratioP1;P2;durP2;ratioP2
51987;SDS011;38003;52.012;4.346;2023-05-10T00:01:19;25.07;;;22.57;;
51987;SDS011;38003;52.012;4.346;2023-05-10T00:03:48;18.80;;;17.00;;
51987;SDS011;38003;52.012;4.346;2023-05-10T00:06:17;21.37;;;19.37;;
51987;SDS011;38003;52.012;4.346;2023-05-10T00:08:46;21.13;;;19.23;;
51987;SDS011;38003;52.012;4.346;2023-05-10T00:11:14;21.73;;;19.43;;
51987;SDS011;38003;52.012;4.346;2023-05-10T00:13:42;20.83;;;18.83;;
51987;SDS011;38003;52.012;4.346;2023-05-10T00:16:11;20.83;;;18.60;;
51987;SDS011;38003;52.012;4.346;2023-05-10T00:18:39;21.50;;;19.33;;
51987;SDS011;38003;52.012;4.346;2023-05-10T00:21:08;20.17;;;18.27;;
51987;SDS011;38003;52.012;4.346;2023-05-10T00:23:37;20.67;;;18.67;;
51987;SDS011;38003;52.012;4.346;2023-05-10T00:26:05;23.97;;;21.53;;
51987;SDS011;38003;52.012;4.346;2023-05-10T00:28:33;26.73;;;24.10;;
51987;SDS011;38003;52.012;4.346;2023-05-10T00:31:02;21.53;;;19.33;;
51987;SDS011;38003;52.012;4.346;2023-05-10T00:33:30;23.53;;;21.20;;
51987;SDS011;38003;52.012;4.346;2023-05-10T00:35:58;27.43;;;24.73;;
51987;SDS011;38003;52.012;4.346;2023-05-10T00:38:26;27.50;;;24.80;;
51987;SDS011;38003;52.012;4.346;2023-05-10T00:40:56;26.73;;;23.97;;
51987;SDS011;38003;52.012;4.346;2023-05-10T00:43:24;25.00;;;22.60;;
51987;SDS011;38003;52.012;4.346;2023-05-10T00:45:52;24.80;;;22.37;;
51987;SDS011;38003;52.012;4.346;2023-05-10T00:48:21;29.27;;;26.13;;
51987;SDS011;38003;52.012;4.346;2023-05-10T00:50:50;30.03;;;27.27;;
51987;SDS011;38003;52.012;4.346;2023-05-10T00:53:18;38.57;;;34.93;;
51987;SDS011;38003;52.012;4.346;2023-05-10T00:55:46;45.80;;;41.67;;
51987;SDS011;38003;52.012;4.346;2023-05-10T00:58:16;51.33;;;46.90;;
51987;SDS011;38003;52.012;4.346;2023-05-10T01:00:44;56.77;;;52.07;;
51987;SDS011;38003;52.012;4.346;2023-05-10T01:03:14;58.57;;;53.43;;
51987;SDS011;38003;52.012;4.346;2023-05-10T01:05:43;65.20;;;59.53;;
51987;SDS011;38003;52.012;4.346;2023-05-10T01:08:11;64.93;;;58.50;;
51987;SDS011;38003;52.012;4.346;2023-05-10T01:10:39;65.27;;;59.17;;
51987;SDS011;38003;52.012;4.346;2023-05-10T01:13:08;70.57;;;64.00;;
51987;SDS011;38003;52.012;4.346;2023-05-10T01:15:38;70.27;;;63.87;;
51987;SDS011;38003;52.012;4.346;2023-05-10T01:18:07;75.53;;;68.77;;
51987;SDS011;38003;52.012;4.346;2023-05-10T01:20:38;75.77;;;68.67;;
51987;SDS011;38003;52.012;4.346;2023-05-10T01:23:16;78.27;;;71.00;;
51987;SDS011;38003;52.012;4.346;2023-05-10T01:28:39;72.80;;;65.30;;
51987;SDS011;38003;52.012;4.346;2023-05-10T01:31:20;84.97;;;76.83;;
51987;SDS011;38003;52.012;4.346;2023-05-10T01:33:54;75.60;;;67.70;;
51987;SDS011;38003;52.012;4.346;2023-05-10T01:36:26;77.60;;;70.50;;
51987;SDS011;38003;52.012;4.346;2023-05-10T01:38:57;81.30;;;73.97;;
51987;SDS011;38003;52.012;4.346;2023-05-10T01:41:28;78.00;;;70.87;;
51987;SDS011;38003;52.012;4.346;2023-05-10T01:44:00;77.30;;;71.03;;
51987;SDS011;38003;52.012;4.346;2023-05-10T01:46:32;83.00;;;75.97;;
51987;SDS011;38003;52.012;4.346;2023-05-10T01:49:03;78.37;;;71.60;;
51987;SDS011;38003;52.012;4.346;2023-05-10T01:51:35;84.83;;;78.33;;
51987;SDS011;38003;52.012;4.346;2023-05-10T01:54:04;83.40;;;76.93;;
51987;SDS011;38003;52.012;4.346;2023-05-10T01:56:33;92.03;;;85.17;;
51987;SDS011;38003;52.012;4.346;2023-05-10T01:59:04;90.13;;;83.43;;
51987;SDS011;38003;52.012;4.346;2023-05-10T02:01:34;82.30;;;76.23;;
51987;SDS011;38003;52.012;4.346;2023-05-10T02:04:06;82.53;;;76.23;;
51987;SDS011;38003;52.012;4.346;2023-05-10T02:06:35;81.73;;;75.60;;
51987;SDS011;38003;52.012;4.346;2023-05-10T02:09:03;86.60;;;79.83;;
51987;SDS011;38003;52.012;4.346;2023-05-10T02:11:33;89.33;;;82.47;;
51987;SDS011;38003;52.012;4.346;2023-05-10T02:14:01;86.60;;;79.87;;
51987;SDS011;38003;52.012;4.346;2023-05-10T02:16:29;75.07;;;69.27;;
51987;SDS011;38003;52.012;4.346;2023-05-10T02:18:58;75.97;;;70.07;;
51987;SDS011;38003;52.012;4.346;2023-05-10T02:21:28;78.57;;;72.37;;
51987;SDS011;38003;52.012;4.346;2023-05-10T02:23:59;61.67;;;57.00;;
51987;SDS011;38003;52.012;4.346;2023-05-10T02:26:28;56.50;;;52.17;;
51987;SDS011;38003;52.012;4.346;2023-05-10T02:28:57;77.90;;;72.50;;
51987;SDS011;38003;52.012;4.346;2023-05-10T02:31:25;77.03;;;71.30;;
51987;SDS011;38003;52.012;4.346;2023-05-10T02:33:54;75.57;;;70.27;;
51987;SDS011;38003;52.012;4.346;2023-05-10T02:36:23;78.00;;;72.30;;
51987;SDS011;38003;52.012;4.346;2023-05-10T02:38:52;63.33;;;58.83;;
51987;SDS011;38003;52.012;4.346;2023-05-10T02:41:21;59.77;;;55.47;;
51987;SDS011;38003;52.012;4.346;2023-05-10T02:43:50;61.23;;;56.73;;
51987;SDS011;38003;52.012;4.346;2023-05-10T02:46:19;65.47;;;60.60;;
51987;SDS011;38003;52.012;4.346;2023-05-10T02:48:47;88.03;;;81.63;;
51987;SDS011;38003;52.012;4.346;2023-05-10T02:51:15;78.57;;;72.93;;
51987;SDS011;38003;52.012;4.346;2023-05-10T02:53:45;74.83;;;69.90;;
51987;SDS011;38003;52.012;4.346;2023-05-10T02:56:19;68.20;;;63.27;;
51987;SDS011;38003;52.012;4.346;2023-05-10T02:58:48;80.50;;;75.33;;
51987;SDS011;38003;52.012;4.346;2023-05-10T03:01:16;89.27;;;83.43;;
51987;SDS011;38003;52.012;4.346;2023-05-10T03:03:44;87.20;;;81.40;;
51987;SDS011;38003;52.012;4.346;2023-05-10T03:06:13;85.83;;;80.03;;
51987;SDS011;38003;52.012;4.346;2023-05-10T03:08:42;73.97;;;68.30;;
51987;SDS011;38003;52.012;4.346;2023-05-10T03:13:56;50.50;;;46.40;;
51987;SDS011;38003;52.012;4.346;2023-05-10T03:16:29;61.00;;;56.37;;
51987;SDS011;38003;52.012;4.346;2023-05-10T03:19:01;72.20;;;66.90;;
51987;SDS011;38003;52.012;4.346;2023-05-10T03:21:29;63.00;;;58.17;;
51987;SDS011;38003;52.012;4.346;2023-05-10T03:23:58;62.13;;;56.43;;
51987;SDS011;38003;52.012;4.346;2023-05-10T03:26:27;85.30;;;78.80;;
51987;SDS011;38003;52.012;4.346;2023-05-10T03:28:57;69.60;;;64.33;;
51987;SDS011;38003;52.012;4.346;2023-05-10T03:31:25;68.20;;;62.93;;
51987;SDS011;38003;52.012;4.346;2023-05-10T03:33:54;77.80;;;71.33;;
51987;SDS011;38003;52.012;4.346;2023-05-10T03:36:22;67.23;;;61.60;;
51987;SDS011;38003;52.012;4.346;2023-05-10T03:38:50;52.37;;;47.93;;
51987;SDS011;38003;52.012;4.346;2023-05-10T03:41:18;72.37;;;66.70;;
51987;SDS011;38003;52.012;4.346;2023-05-10T03:43:47;72.53;;;66.60;;
51987;SDS011;38003;52.012;4.346;2023-05-10T03:46:17;73.07;;;67.57;;
51987;SDS011;38003;52.012;4.346;2023-05-10T03:48:45;80.50;;;74.63;;
51987;SDS011;38003;52.012;4.346;2023-05-10T03:51:13;62.80;;;57.67;;
51987;SDS011;38003;52.012;4.346;2023-05-10T03:53:41;51.97;;;47.40;;
51987;SDS011;38003;52.012;4.346;2023-05-10T03:56:09;55.60;;;50.27;;
51987;SDS011;38003;52.012;4.346;2023-05-10T03:58:38;55.57;;;49.60;;
51987;SDS011;38003;52.012;4.346;2023-05-10T04:01:06;55.93;;;50.27;;
51987;SDS011;38003;52.012;4.346;2023-05-10T04:03:35;66.00;;;56.13;;
51987;SDS011;38003;52.012;4.346;2023-05-10T04:06:04;50.27;;;41.57;;
51987;SDS011;38003;52.012;4.346;2023-05-10T04:08:34;61.27;;;55.20;;
51987;SDS011;38003;52.012;4.346;2023-05-10T04:11:05;60.97;;;55.30;;
51987;SDS011;38003;52.012;4.346;2023-05-10T04:13:34;62.53;;;55.57;;
51987;SDS011;38003;52.012;4.346;2023-05-10T04:16:03;50.53;;;45.67;;
51987;SDS011;38003;52.012;4.346;2023-05-10T04:18:31;66.13;;;43.20;;
51987;SDS011;38003;52.012;4.346;2023-05-10T04:21:00;47.77;;;42.53;;
51987;SDS011;38003;52.012;4.346;2023-05-10T04:23:29;36.50;;;33.30;;
51987;SDS011;38003;52.012;4.346;2023-05-10T04:26:00;35.13;;;31.77;;
51987;SDS011;38003;52.012;4.346;2023-05-10T04:28:28;50.60;;;46.63;;
51987;SDS011;38003;52.012;4.346;2023-05-10T04:31:00;43.60;;;40.17;;
51987;SDS011;38003;52.012;4.346;2023-05-10T04:33:28;38.00;;;35.57;;
51987;SDS011;38003;52.012;4.346;2023-05-10T04:35:57;59.33;;;56.00;;
51987;SDS011;38003;52.012;4.346;2023-05-10T04:38:26;52.67;;;49.63;;
51987;SDS011;38003;52.012;4.346;2023-05-10T04:41:03;39.57;;;37.37;;
51987;SDS011;38003;52.012;4.346;2023-05-10T04:43:31;35.03;;;33.13;;
51987;SDS011;38003;52.012;4.346;2023-05-10T04:45:59;31.43;;;29.73;;
51987;SDS011;38003;52.012;4.346;2023-05-10T04:48:28;33.07;;;31.33;;
51987;SDS011;38003;52.012;4.346;2023-05-10T04:50:56;48.93;;;46.47;;
51987;SDS011;38003;52.012;4.346;2023-05-10T04:53:24;35.57;;;33.73;;
51987;SDS011;38003;52.012;4.346;2023-05-10T04:55:54;45.63;;;43.23;;
51987;SDS011;38003;52.012;4.346;2023-05-10T04:58:22;48.03;;;45.57;;
51987;SDS011;38003;52.012;4.346;2023-05-10T05:00:50;45.33;;;42.97;;
51987;SDS011;38003;52.012;4.346;2023-05-10T05:03:18;39.03;;;37.10;;
51987;SDS011;38003;52.012;4.346;2023-05-10T05:05:47;50.87;;;48.40;;
51987;SDS011;38003;52.012;4.346;2023-05-10T05:08:15;53.07;;;50.57;;
51987;SDS011;38003;52.012;4.346;2023-05-10T05:10:43;35.67;;;33.67;;
51987;SDS011;38003;52.012;4.346;2023-05-10T05:13:13;45.83;;;43.47;;
51987;SDS011;38003;52.012;4.346;2023-05-10T05:15:41;34.47;;;32.57;;
51987;SDS011;38003;52.012;4.346;2023-05-10T05:18:09;37.73;;;35.63;;
51987;SDS011;38003;52.012;4.346;2023-05-10T05:20:38;35.53;;;33.57;;
51987;SDS011;38003;52.012;4.346;2023-05-10T05:23:06;40.60;;;38.37;;
51987;SDS011;38003;52.012;4.346;2023-05-10T05:25:34;50.17;;;47.47;;
51987;SDS011;38003;52.012;4.346;2023-05-10T05:28:03;54.80;;;51.80;;
51987;SDS011;38003;52.012;4.346;2023-05-10T05:30:33;58.47;;;55.47;;
51987;SDS011;38003;52.012;4.346;2023-05-10T05:33:01;56.30;;;53.33;;
51987;SDS011;38003;52.012;4.346;2023-05-10T05:35:29;60.40;;;57.20;;
51987;SDS011;38003;52.012;4.346;2023-05-10T05:37:57;61.43;;;58.30;;
51987;SDS011;38003;52.012;4.346;2023-05-10T05:40:25;56.93;;;54.03;;
51987;SDS011;38003;52.012;4.346;2023-05-10T05:42:53;57.73;;;54.73;;
51987;SDS011;38003;52.012;4.346;2023-05-10T05:45:22;65.80;;;62.50;;
51987;SDS011;38003;52.012;4.346;2023-05-10T05:47:51;60.60;;;57.33;;
51987;SDS011;38003;52.012;4.346;2023-05-10T05:50:19;50.50;;;47.73;;
51987;SDS011;38003;52.012;4.346;2023-05-10T05:52:48;59.53;;;55.80;;
51987;SDS011;38003;52.012;4.346;2023-05-10T05:55:16;72.13;;;68.57;;
51987;SDS011;38003;52.012;4.346;2023-05-10T05:57:44;68.63;;;65.17;;
51987;SDS011;38003;52.012;4.346;2023-05-10T06:00:13;67.40;;;63.93;;
51987;SDS011;38003;52.012;4.346;2023-05-10T06:02:41;90.20;;;85.80;;
51987;SDS011;38003;52.012;4.346;2023-05-10T06:05:11;92.40;;;87.97;;
51987;SDS011;38003;52.012;4.346;2023-05-10T06:07:40;85.17;;;80.83;;
51987;SDS011;38003;52.012;4.346;2023-05-10T06:10:09;108.63;;;103.47;;
51987;SDS011;38003;52.012;4.346;2023-05-10T06:12:37;133.07;;;126.97;;
51987;SDS011;38003;52.012;4.346;2023-05-10T06:15:05;105.50;;;100.13;;
51987;SDS011;38003;52.012;4.346;2023-05-10T06:17:34;116.30;;;110.77;;
51987;SDS011;38003;52.012;4.346;2023-05-10T06:20:02;129.47;;;123.37;;
51987;SDS011;38003;52.012;4.346;2023-05-10T06:22:32;100.87;;;95.63;;
51987;SDS011;38003;52.012;4.346;2023-05-10T06:25:00;92.63;;;87.83;;
51987;SDS011;38003;52.012;4.346;2023-05-10T06:27:29;93.73;;;88.73;;
51987;SDS011;38003;52.012;4.346;2023-05-10T06:29:57;87.63;;;82.90;;
51987;SDS011;38003;52.012;4.346;2023-05-10T06:32:37;83.23;;;78.87;;
51987;SDS011;38003;52.012;4.346;2023-05-10T06:35:10;86.20;;;81.47;;
51987;SDS011;38003;52.012;4.346;2023-05-10T06:37:39;106.07;;;100.97;;
51987;SDS011;38003;52.012;4.346;2023-05-10T06:40:07;74.07;;;69.70;;
51987;SDS011;38003;52.012;4.346;2023-05-10T06:42:36;87.13;;;82.80;;
51987;SDS011;38003;52.012;4.346;2023-05-10T06:45:04;76.00;;;71.90;;
51987;SDS011;38003;52.012;4.346;2023-05-10T06:47:33;68.93;;;65.23;;
51987;SDS011;38003;52.012;4.346;2023-05-10T06:50:04;74.70;;;70.63;;
51987;SDS011;38003;52.012;4.346;2023-05-10T06:52:32;96.40;;;91.67;;
51987;SDS011;38003;52.012;4.346;2023-05-10T06:55:02;69.83;;;65.77;;
51987;SDS011;38003;52.012;4.346;2023-05-10T06:57:30;72.67;;;68.60;;
51987;SDS011;38003;52.012;4.346;2023-05-10T06:59:59;62.07;;;58.80;;
51987;SDS011;38003;52.012;4.346;2023-05-10T07:02:27;56.80;;;53.50;;
51987;SDS011;38003;52.012;4.346;2023-05-10T07:04:55;57.70;;;54.30;;
51987;SDS011;38003;52.012;4.346;2023-05-10T07:07:28;49.43;;;46.43;;
51987;SDS011;38003;52.012;4.346;2023-05-10T07:09:56;58.80;;;55.60;;
51987;SDS011;38003;52.012;4.346;2023-05-10T07:12:26;54.07;;;51.13;;
51987;SDS011;38003;52.012;4.346;2023-05-10T07:14:54;58.00;;;54.60;;
51987;SDS011;38003;52.012;4.346;2023-05-10T07:17:22;47.80;;;44.80;;
51987;SDS011;38003;52.012;4.346;2023-05-10T07:19:50;51.77;;;48.60;;
51987;SDS011;38003;52.012;4.346;2023-05-10T07:22:19;51.77;;;48.63;;
51987;SDS011;38003;52.012;4.346;2023-05-10T07:24:47;44.03;;;41.03;;
51987;SDS011;38003;52.012;4.346;2023-05-10T07:27:16;34.60;;;32.23;;
51987;SDS011;38003;52.012;4.346;2023-05-10T07:29:45;38.90;;;36.50;;
51987;SDS011;38003;52.012;4.346;2023-05-10T07:32:13;29.13;;;27.43;;
51987;SDS011;38003;52.012;4.346;2023-05-10T07:34:42;27.63;;;25.90;;
51987;SDS011;38003;52.012;4.346;2023-05-10T07:37:10;31.77;;;29.77;;
51987;SDS011;38003;52.012;4.346;2023-05-10T07:39:38;35.83;;;33.73;;
51987;SDS011;38003;52.012;4.346;2023-05-10T07:42:06;30.33;;;28.30;;
51987;SDS011;38003;52.012;4.346;2023-05-10T07:44:35;26.00;;;24.17;;
51987;SDS011;38003;52.012;4.346;2023-05-10T07:47:04;30.90;;;28.97;;
51987;SDS011;38003;52.012;4.346;2023-05-10T07:49:32;36.77;;;34.77;;
51987;SDS011;38003;52.012;4.346;2023-05-10T07:52:02;35.67;;;33.50;;
51987;SDS011;38003;52.012;4.346;2023-05-10T07:54:31;23.90;;;22.33;;
51987;SDS011;38003;52.012;4.346;2023-05-10T07:57:00;21.80;;;20.40;;
51987;SDS011;38003;52.012;4.346;2023-05-10T07:59:28;23.67;;;22.27;;
51987;SDS011;38003;52.012;4.346;2023-05-10T08:01:56;24.50;;;22.87;;
51987;SDS011;38003;52.012;4.346;2023-05-10T08:04:26;31.23;;;29.40;;
51987;SDS011;38003;52.012;4.346;2023-05-10T08:06:54;34.73;;;32.93;;
51987;SDS011;38003;52.012;4.346;2023-05-10T08:09:22;27.23;;;25.63;;
51987;SDS011;38003;52.012;4.346;2023-05-10T08:11:50;23.53;;;22.20;;
51987;SDS011;38003;52.012;4.346;2023-05-10T08:14:19;32.67;;;30.97;;
51987;SDS011;38003;52.012;4.346;2023-05-10T08:16:47;27.33;;;25.73;;
51987;SDS011;38003;52.012;4.346;2023-05-10T08:19:15;23.43;;;22.03;;
51987;SDS011;38003;52.012;4.346;2023-05-10T08:21:46;19.57;;;18.37;;
51987;SDS011;38003;52.012;4.346;2023-05-10T08:24:15;20.17;;;18.97;;
51987;SDS011;38003;52.012;4.346;2023-05-10T08:26:43;19.13;;;18.13;;
51987;SDS011;38003;52.012;4.346;2023-05-10T08:29:11;21.53;;;20.23;;
51987;SDS011;38003;52.012;4.346;2023-05-10T08:31:39;39.67;;;37.53;;
51987;SDS011;38003;52.012;4.346;2023-05-10T08:34:07;27.93;;;26.43;;
51987;SDS011;38003;52.012;4.346;2023-05-10T08:36:36;28.40;;;26.90;;
51987;SDS011;38003;52.012;4.346;2023-05-10T08:39:05;39.80;;;37.80;;
51987;SDS011;38003;52.012;4.346;2023-05-10T08:41:48;33.37;;;31.67;;
51987;SDS011;38003;52.012;4.346;2023-05-10T08:44:18;25.90;;;24.40;;
51987;SDS011;38003;52.012;4.346;2023-05-10T08:46:47;22.70;;;21.47;;
51987;SDS011;38003;52.012;4.346;2023-05-10T08:49:17;22.90;;;21.53;;
51987;SDS011;38003;52.012;4.346;2023-05-10T08:51:49;20.07;;;18.77;;
51987;SDS011;38003;52.012;4.346;2023-05-10T08:54:19;18.00;;;16.70;;
51987;SDS011;38003;52.012;4.346;2023-05-10T08:56:48;20.57;;;19.17;;
51987;SDS011;38003;52.012;4.346;2023-05-10T08:59:16;22.43;;;20.47;;
51987;SDS011;38003;52.012;4.346;2023-05-10T09:01:45;17.57;;;16.10;;
51987;SDS011;38003;52.012;4.346;2023-05-10T09:04:15;19.67;;;18.40;;
51987;SDS011;38003;52.012;4.346;2023-05-10T09:06:44;11.80;;;10.67;;
51987;SDS011;38003;52.012;4.346;2023-05-10T09:09:12;14.07;;;12.97;;
51987;SDS011;38003;52.012;4.346;2023-05-10T09:11:42;16.57;;;15.27;;
51987;SDS011;38003;52.012;4.346;2023-05-10T09:14:10;16.80;;;15.60;;
51987;SDS011;38003;52.012;4.346;2023-05-10T09:16:40;15.77;;;14.30;;
51987;SDS011;38003;52.012;4.346;2023-05-10T09:19:08;15.30;;;13.57;;
51987;SDS011;38003;52.012;4.346;2023-05-10T09:21:37;16.43;;;14.87;;
51987;SDS011;38003;52.012;4.346;2023-05-10T09:24:05;14.27;;;12.97;;
51987;SDS011;38003;52.012;4.346;2023-05-10T09:26:34;11.70;;;10.60;;
51987;SDS011;38003;52.012;4.346;2023-05-10T09:29:03;9.50;;;8.50;;
51987;SDS011;38003;52.012;4.346;2023-05-10T09:31:46;9.73;;;8.73;;
51987;SDS011;38003;52.012;4.346;2023-05-10T09:34:17;12.83;;;10.30;;
51987;SDS011;38003;52.012;4.346;2023-05-10T09:36:50;16.17;;;14.90;;
51987;SDS011;38003;52.012;4.346;2023-05-10T09:39:18;10.37;;;9.20;;
51987;SDS011;38003;52.012;4.346;2023-05-10T09:41:46;10.30;;;9.20;;
51987;SDS011;38003;52.012;4.346;2023-05-10T09:44:19;11.80;;;10.70;;
51987;SDS011;38003;52.012;4.346;2023-05-10T09:46:50;11.53;;;10.37;;
51987;SDS011;38003;52.012;4.346;2023-05-10T09:49:19;10.97;;;9.97;;
51987;SDS011;38003;52.012;4.346;2023-05-10T09:51:47;12.33;;;11.33;;
51987;SDS011;38003;52.012;4.346;2023-05-10T09:54:15;11.97;;;10.77;;
51987;SDS011;38003;52.012;4.346;2023-05-10T09:56:44;15.20;;;14.00;;
51987;SDS011;38003;52.012;4.346;2023-05-10T09:59:12;14.10;;;12.40;;
51987;SDS011;38003;52.012;4.346;2023-05-10T10:01:42;13.43;;;12.03;;
51987;SDS011;38003;52.012;4.346;2023-05-10T10:04:17;12.97;;;11.83;;
51987;SDS011;38003;52.012;4.346;2023-05-10T10:06:45;15.83;;;14.30;;
51987;SDS011;38003;52.012;4.346;2023-05-10T10:09:13;18.60;;;17.00;;
51987;SDS011;38003;52.012;4.346;2023-05-10T10:11:43;16.27;;;14.93;;
51987;SDS011;38003;52.012;4.346;2023-05-10T10:14:12;15.83;;;14.53;;
51987;SDS011;38003;52.012;4.346;2023-05-10T10:16:41;15.83;;;14.40;;
51987;SDS011;38003;52.012;4.346;2023-05-10T10:19:29;16.30;;;15.30;;
51987;SDS011;38003;52.012;4.346;2023-05-10T10:21:58;14.67;;;13.70;;
51987;SDS011;38003;52.012;4.346;2023-05-10T10:24:26;16.57;;;15.47;;
51987;SDS011;38003;52.012;4.346;2023-05-10T10:26:55;16.90;;;15.70;;
51987;SDS011;38003;52.012;4.346;2023-05-10T10:29:25;22.10;;;20.77;;
51987;SDS011;38003;52.012;4.346;2023-05-10T10:32:01;23.03;;;21.70;;
51987;SDS011;38003;52.012;4.346;2023-05-10T10:34:31;18.87;;;17.57;;
51987;SDS011;38003;52.012;4.346;2023-05-10T10:37:03;23.13;;;21.67;;
51987;SDS011;38003;52.012;4.346;2023-05-10T10:39:32;25.10;;;23.37;;
51987;SDS011;38003;52.012;4.346;2023-05-10T10:42:03;24.27;;;22.67;;
51987;SDS011;38003;52.012;4.346;2023-05-10T10:44:38;21.07;;;19.83;;
51987;SDS011;38003;52.012;4.346;2023-05-10T10:47:10;21.00;;;19.30;;
51987;SDS011;38003;52.012;4.346;2023-05-10T10:49:43;24.37;;;22.77;;
51987;SDS011;38003;52.012;4.346;2023-05-10T10:52:12;20.43;;;18.97;;
51987;SDS011;38003;52.012;4.346;2023-05-10T10:54:40;26.17;;;24.57;;
51987;SDS011;38003;52.012;4.346;2023-05-10T10:57:11;29.03;;;27.23;;
51987;SDS011;38003;52.012;4.346;2023-05-10T10:59:43;32.13;;;30.27;;
51987;SDS011;38003;52.012;4.346;2023-05-10T11:04:57;29.97;;;28.20;;
51987;SDS011;38003;52.012;4.346;2023-05-10T11:07:26;32.33;;;30.13;;
51987;SDS011;38003;52.012;4.346;2023-05-10T11:09:55;37.53;;;35.03;;
51987;SDS011;38003;52.012;4.346;2023-05-10T11:12:23;31.27;;;29.27;;
51987;SDS011;38003;52.012;4.346;2023-05-10T11:14:51;26.47;;;24.77;;
51987;SDS011;38003;52.012;4.346;2023-05-10T11:17:23;24.83;;;23.23;;
51987;SDS011;38003;52.012;4.346;2023-05-10T11:20:08;27.27;;;25.27;;
51987;SDS011;38003;52.012;4.346;2023-05-10T11:22:49;22.17;;;20.57;;
51987;SDS011;38003;52.012;4.346;2023-05-10T11:25:18;17.57;;;16.27;;
51987;SDS011;38003;52.012;4.346;2023-05-10T11:27:47;15.03;;;13.77;;
51987;SDS011;38003;52.012;4.346;2023-05-10T11:30:15;32.13;;;30.23;;
51987;SDS011;38003;52.012;4.346;2023-05-10T11:32:44;17.83;;;16.43;;
51987;SDS011;38003;52.012;4.346;2023-05-10T11:35:14;15.63;;;14.37;;
51987;SDS011;38003;52.012;4.346;2023-05-10T11:37:42;20.67;;;19.00;;
51987;SDS011;38003;52.012;4.346;2023-05-10T11:40:11;19.47;;;17.87;;
51987;SDS011;38003;52.012;4.346;2023-05-10T11:42:41;15.20;;;13.87;;
51987;SDS011;38003;52.012;4.346;2023-05-10T11:45:09;16.70;;;15.43;;
51987;SDS011;38003;52.012;4.346;2023-05-10T11:47:38;10.47;;;9.37;;
51987;SDS011;38003;52.012;4.346;2023-05-10T11:50:08;10.33;;;9.33;;
51987;SDS011;38003;52.012;4.346;2023-05-10T11:52:38;12.00;;;10.90;;
51987;SDS011;38003;52.012;4.346;2023-05-10T11:55:07;11.33;;;10.30;;
51987;SDS011;38003;52.012;4.346;2023-05-10T11:57:35;9.10;;;8.27;;
51987;SDS011;38003;52.012;4.346;2023-05-10T12:00:05;9.43;;;8.40;;
51987;SDS011;38003;52.012;4.346;2023-05-10T12:02:33;10.27;;;8.27;;
51987;SDS011;38003;52.012;4.346;2023-05-10T12:05:01;11.43;;;10.17;;
51987;SDS011;38003;52.012;4.346;2023-05-10T12:07:31;12.77;;;8.20;;
51987;SDS011;38003;52.012;4.346;2023-05-10T12:10:07;8.47;;;7.03;;
51987;SDS011;38003;52.012;4.346;2023-05-10T12:12:39;8.77;;;7.87;;
51987;SDS011;38003;52.012;4.346;2023-05-10T12:15:12;10.17;;;8.23;;
51987;SDS011;38003;52.012;4.346;2023-05-10T12:17:45;9.90;;;8.77;;
51987;SDS011;38003;52.012;4.346;2023-05-10T12:20:13;9.47;;;8.37;;
51987;SDS011;38003;52.012;4.346;2023-05-10T12:22:46;11.07;;;9.93;;
51987;SDS011;38003;52.012;4.346;2023-05-10T12:25:16;14.13;;;9.27;;
51987;SDS011;38003;52.012;4.346;2023-05-10T12:27:48;10.73;;;7.87;;
51987;SDS011;38003;52.012;4.346;2023-05-10T12:30:20;9.80;;;8.20;;
51987;SDS011;38003;52.012;4.346;2023-05-10T12:32:48;10.10;;;8.17;;
51987;SDS011;38003;52.012;4.346;2023-05-10T12:35:17;10.53;;;9.47;;
51987;SDS011;38003;52.012;4.346;2023-05-10T12:37:48;12.03;;;10.93;;
51987;SDS011;38003;52.012;4.346;2023-05-10T12:40:17;13.17;;;11.73;;
51987;SDS011;38003;52.012;4.346;2023-05-10T12:42:46;9.33;;;8.43;;
51987;SDS011;38003;52.012;4.346;2023-05-10T12:45:15;11.07;;;7.90;;
51987;SDS011;38003;52.012;4.346;2023-05-10T12:47:45;7.97;;;6.57;;
51987;SDS011;38003;52.012;4.346;2023-05-10T12:50:13;8.57;;;6.43;;
51987;SDS011;38003;52.012;4.346;2023-05-10T12:52:42;9.37;;;6.80;;
51987;SDS011;38003;52.012;4.346;2023-05-10T12:55:10;9.77;;;8.03;;
51987;SDS011;38003;52.012;4.346;2023-05-10T12:57:39;10.10;;;9.10;;
51987;SDS011;38003;52.012;4.346;2023-05-10T13:00:08;8.97;;;7.80;;
51987;SDS011;38003;52.012;4.346;2023-05-10T13:02:36;8.70;;;7.03;;
51987;SDS011;38003;52.012;4.346;2023-05-10T13:05:05;8.07;;;5.23;;
51987;SDS011;38003;52.012;4.346;2023-05-10T13:07:35;7.37;;;5.90;;
51987;SDS011;38003;52.012;4.346;2023-05-10T13:10:03;7.50;;;6.00;;
51987;SDS011;38003;52.012;4.346;2023-05-10T13:12:32;6.93;;;6.23;;
51987;SDS011;38003;52.012;4.346;2023-05-10T13:15:01;7.00;;;6.30;;
51987;SDS011;38003;52.012;4.346;2023-05-10T13:17:29;8.27;;;5.50;;
51987;SDS011;38003;52.012;4.346;2023-05-10T13:19:59;8.30;;;5.40;;
51987;SDS011;38003;52.012;4.346;2023-05-10T13:22:27;6.17;;;4.90;;
51987;SDS011;38003;52.012;4.346;2023-05-10T13:25:05;6.47;;;5.13;;
51987;SDS011;38003;52.012;4.346;2023-05-10T13:27:34;6.20;;;4.90;;
51987;SDS011;38003;52.012;4.346;2023-05-10T13:30:03;6.73;;;5.00;;
51987;SDS011;38003;52.012;4.346;2023-05-10T13:32:32;5.47;;;4.90;;
51987;SDS011;38003;52.012;4.346;2023-05-10T13:35:01;5.47;;;4.20;;
51987;SDS011;38003;52.012;4.346;2023-05-10T13:37:30;4.83;;;4.33;;
51987;SDS011;38003;52.012;4.346;2023-05-10T13:40:01;4.87;;;4.37;;
51987;SDS011;38003;52.012;4.346;2023-05-10T13:42:30;6.93;;;4.73;;
51987;SDS011;38003;52.012;4.346;2023-05-10T13:44:59;6.00;;;4.70;;
51987;SDS011;38003;52.012;4.346;2023-05-10T13:47:29;6.93;;;5.57;;
51987;SDS011;38003;52.012;4.346;2023-05-10T13:49:57;6.23;;;5.10;;
51987;SDS011;38003;52.012;4.346;2023-05-10T13:52:25;6.73;;;5.77;;
51987;SDS011;38003;52.012;4.346;2023-05-10T13:54:54;6.63;;;5.93;;
51987;SDS011;38003;52.012;4.346;2023-05-10T13:57:22;8.30;;;6.60;;
51987;SDS011;38003;52.012;4.346;2023-05-10T13:59:51;8.07;;;6.50;;
51987;SDS011;38003;52.012;4.346;2023-05-10T14:02:22;8.40;;;6.43;;
51987;SDS011;38003;52.012;4.346;2023-05-10T14:04:53;6.23;;;5.63;;
51987;SDS011;38003;52.012;4.346;2023-05-10T14:07:21;8.10;;;5.80;;
51987;SDS011;38003;52.012;4.346;2023-05-10T14:09:49;6.07;;;5.47;;
51987;SDS011;38003;52.012;4.346;2023-05-10T14:12:18;6.90;;;4.90;;
51987;SDS011;38003;52.012;4.346;2023-05-10T14:14:46;6.13;;;5.23;;
51987;SDS011;38003;52.012;4.346;2023-05-10T14:17:14;6.53;;;5.60;;
51987;SDS011;38003;52.012;4.346;2023-05-10T14:19:42;6.53;;;5.67;;
51987;SDS011;38003;52.012;4.346;2023-05-10T14:22:12;6.70;;;5.67;;
51987;SDS011;38003;52.012;4.346;2023-05-10T14:24:40;6.23;;;5.63;;
51987;SDS011;38003;52.012;4.346;2023-05-10T14:27:10;8.37;;;6.03;;
51987;SDS011;38003;52.012;4.346;2023-05-10T14:29:38;5.40;;;4.90;;
51987;SDS011;38003;52.012;4.346;2023-05-10T14:32:06;5.20;;;4.70;;
51987;SDS011;38003;52.012;4.346;2023-05-10T14:34:34;6.23;;;5.03;;
51987;SDS011;38003;52.012;4.346;2023-05-10T14:37:03;8.53;;;4.40;;
51987;SDS011;38003;52.012;4.346;2023-05-10T14:39:32;4.70;;;4.30;;
51987;SDS011;38003;52.012;4.346;2023-05-10T14:42:01;4.50;;;4.10;;
51987;SDS011;38003;52.012;4.346;2023-05-10T14:44:29;4.20;;;3.80;;
51987;SDS011;38003;52.012;4.346;2023-05-10T14:46:58;5.93;;;4.00;;